Weather at Otto Intermediate Field [CLOSED]

Public forecast

Using degrees Fahrenheit for public forecast. Weather courtesy of forecast.io.

Closest aviation weather report (METAR) to Otto Intermediate Field

Closest report is Moriarty Municipal Airport, 5.8 nm (10.8 km) S.

(retrieved 0 seconds ago)

Closest aviation forecast (TAF) to Otto Intermediate Field

Closest forecast is Albuquerque International Sunport, 29.8 nm (55.2 km) W.

2024/07/18 18:40 (retrieved 0 seconds ago)

TAF KABQ 181738Z 1818/1918 VRB06KT P6SM FEW120 FM182100 24006KT P6SM VCSH SCT100 FM182300 10015G25KT P6SM VCSH BKN090 TEMPO 1901/1904 VRB20G35KT 6SM -TSRA OVC080CB FM190700 09007KT P6SM BKN080 FM191400 24006KT P6SM SCT100